Terminal Aerodrome Forecast
Issued by NWS

Home | Current Version | Previous Version | Text Only | Print | Product List | Glossary On
Versions: 1 2 3 4 5 6 7 8 9 10 11 12 13 14
605
FTUS43 KDVN 071144
TAFBRL
TAF
KBRL 071144Z 0712/0812 22011KT P6SM SCT110
     FM071800 28013G18KT P6SM SCT050
     FM080500 28011G16KT 5SM BR VCSH OVC025
     FM080900 29014G22KT 3SM -SHSN BR SCT007 OVC012
     FM081000 30016G24KT 5SM -SHSN BR SCT009 OVC018=

USA.gov is the U.S. government's official web portal to all federal, state and local government web resources and services.